sensor_id;sensor_type;location;lat;lon;timestamp;P1;durP1;ratioP1;P2;durP2;ratioP2
68284;SDS011;55114;52.052;5.238;2022-12-20T00:01:46;5.20;;;2.50;;
68284;SDS011;55114;52.052;5.238;2022-12-20T00:04:13;6.45;;;2.72;;
68284;SDS011;55114;52.052;5.238;2022-12-20T00:06:41;7.15;;;2.90;;
68284;SDS011;55114;52.052;5.238;2022-12-20T00:09:08;5.80;;;2.60;;
68284;SDS011;55114;52.052;5.238;2022-12-20T00:11:39;5.55;;;2.67;;
68284;SDS011;55114;52.052;5.238;2022-12-20T00:14:14;6.30;;;2.40;;
68284;SDS011;55114;52.052;5.238;2022-12-20T00:16:42;6.13;;;2.70;;
68284;SDS011;55114;52.052;5.238;2022-12-20T00:19:11;5.30;;;2.78;;
68284;SDS011;55114;52.052;5.238;2022-12-20T00:21:38;5.90;;;3.00;;
68284;SDS011;55114;52.052;5.238;2022-12-20T00:24:06;5.32;;;2.72;;
68284;SDS011;55114;52.052;5.238;2022-12-20T00:26:36;5.03;;;2.40;;
68284;SDS011;55114;52.052;5.238;2022-12-20T00:29:04;7.10;;;2.88;;
68284;SDS011;55114;52.052;5.238;2022-12-20T00:31:32;5.70;;;2.70;;
68284;SDS011;55114;52.052;5.238;2022-12-20T00:34:00;5.35;;;2.75;;
68284;SDS011;55114;52.052;5.238;2022-12-20T00:36:28;5.85;;;2.58;;
68284;SDS011;55114;52.052;5.238;2022-12-20T00:38:56;5.50;;;2.30;;
68284;SDS011;55114;52.052;5.238;2022-12-20T00:41:30;5.18;;;2.42;;
68284;SDS011;55114;52.052;5.238;2022-12-20T00:43:57;5.40;;;2.60;;
68284;SDS011;55114;52.052;5.238;2022-12-20T00:46:25;7.28;;;2.85;;
68284;SDS011;55114;52.052;5.238;2022-12-20T00:48:53;5.82;;;2.50;;
68284;SDS011;55114;52.052;5.238;2022-12-20T00:51:22;4.90;;;2.40;;
68284;SDS011;55114;52.052;5.238;2022-12-20T00:53:49;5.35;;;2.35;;
68284;SDS011;55114;52.052;5.238;2022-12-20T00:56:17;5.15;;;2.30;;
68284;SDS011;55114;52.052;5.238;2022-12-20T00:58:45;6.53;;;2.40;;
68284;SDS011;55114;52.052;5.238;2022-12-20T01:01:20;6.72;;;2.70;;
68284;SDS011;55114;52.052;5.238;2022-12-20T01:03:48;5.20;;;2.40;;
68284;SDS011;55114;52.052;5.238;2022-12-20T01:06:18;5.57;;;2.45;;
68284;SDS011;55114;52.052;5.238;2022-12-20T01:08:45;6.25;;;2.58;;
68284;SDS011;55114;52.052;5.238;2022-12-20T01:11:14;5.68;;;2.40;;
68284;SDS011;55114;52.052;5.238;2022-12-20T01:13:43;7.45;;;2.70;;
68284;SDS011;55114;52.052;5.238;2022-12-20T01:18:41;5.47;;;2.70;;
68284;SDS011;55114;52.052;5.238;2022-12-20T01:21:10;6.28;;;2.67;;
68284;SDS011;55114;52.052;5.238;2022-12-20T01:23:45;6.32;;;2.58;;
68284;SDS011;55114;52.052;5.238;2022-12-20T01:26:14;7.25;;;2.80;;
68284;SDS011;55114;52.052;5.238;2022-12-20T01:28:42;4.93;;;2.57;;
68284;SDS011;55114;52.052;5.238;2022-12-20T01:31:10;7.25;;;3.00;;
68284;SDS011;55114;52.052;5.238;2022-12-20T01:33:37;5.95;;;2.90;;
68284;SDS011;55114;52.052;5.238;2022-12-20T01:36:06;6.95;;;2.80;;
68284;SDS011;55114;52.052;5.238;2022-12-20T01:38:35;4.38;;;2.28;;
68284;SDS011;55114;52.052;5.238;2022-12-20T01:41:03;6.50;;;2.90;;
68284;SDS011;55114;52.052;5.238;2022-12-20T01:43:49;6.03;;;2.63;;
68284;SDS011;55114;52.052;5.238;2022-12-20T01:46:17;8.88;;;3.28;;
68284;SDS011;55114;52.052;5.238;2022-12-20T01:48:49;6.63;;;2.90;;
68284;SDS011;55114;52.052;5.238;2022-12-20T01:51:20;5.90;;;2.80;;
68284;SDS011;55114;52.052;5.238;2022-12-20T01:53:49;5.80;;;2.87;;
68284;SDS011;55114;52.052;5.238;2022-12-20T01:56:17;6.78;;;3.08;;
68284;SDS011;55114;52.052;5.238;2022-12-20T01:58:44;7.43;;;3.10;;
68284;SDS011;55114;52.052;5.238;2022-12-20T02:01:13;6.28;;;2.72;;
68284;SDS011;55114;52.052;5.238;2022-12-20T02:03:41;7.82;;;3.53;;
68284;SDS011;55114;52.052;5.238;2022-12-20T02:06:13;9.80;;;3.00;;
68284;SDS011;55114;52.052;5.238;2022-12-20T02:08:48;7.13;;;3.10;;
68284;SDS011;55114;52.052;5.238;2022-12-20T02:13:50;6.55;;;2.97;;
68284;SDS011;55114;52.052;5.238;2022-12-20T02:16:27;7.35;;;2.90;;
68284;SDS011;55114;52.052;5.238;2022-12-20T02:22:35;5.97;;;3.15;;
68284;SDS011;55114;52.052;5.238;2022-12-20T02:27:58;7.35;;;3.10;;
68284;SDS011;55114;52.052;5.238;2022-12-20T02:30:34;6.70;;;3.00;;
68284;SDS011;55114;52.052;5.238;2022-12-20T02:33:09;7.43;;;2.70;;
68284;SDS011;55114;52.052;5.238;2022-12-20T02:35:38;6.28;;;2.97;;
68284;SDS011;55114;52.052;5.238;2022-12-20T02:40:54;7.10;;;2.72;;
68284;SDS011;55114;52.052;5.238;2022-12-20T02:43:23;6.70;;;3.10;;
68284;SDS011;55114;52.052;5.238;2022-12-20T02:46:11;7.63;;;2.70;;
68284;SDS011;55114;52.052;5.238;2022-12-20T02:48:43;6.93;;;3.15;;
68284;SDS011;55114;52.052;5.238;2022-12-20T02:51:12;7.07;;;3.20;;
68284;SDS011;55114;52.052;5.238;2022-12-20T02:53:39;6.90;;;3.17;;
68284;SDS011;55114;52.052;5.238;2022-12-20T02:56:12;7.22;;;3.15;;
68284;SDS011;55114;52.052;5.238;2022-12-20T02:59:08;6.80;;;2.70;;
68284;SDS011;55114;52.052;5.238;2022-12-20T03:01:44;6.43;;;2.97;;
68284;SDS011;55114;52.052;5.238;2022-12-20T03:04:25;5.40;;;2.80;;
68284;SDS011;55114;52.052;5.238;2022-12-20T03:06:59;6.13;;;2.78;;
68284;SDS011;55114;52.052;5.238;2022-12-20T03:09:27;7.53;;;3.15;;
68284;SDS011;55114;52.052;5.238;2022-12-20T03:11:54;7.13;;;3.03;;
68284;SDS011;55114;52.052;5.238;2022-12-20T03:14:21;6.75;;;2.63;;
68284;SDS011;55114;52.052;5.238;2022-12-20T03:16:49;7.18;;;2.90;;
68284;SDS011;55114;52.052;5.238;2022-12-20T03:19:17;5.72;;;2.78;;
68284;SDS011;55114;52.052;5.238;2022-12-20T03:21:44;6.93;;;3.35;;
68284;SDS011;55114;52.052;5.238;2022-12-20T03:24:11;8.20;;;2.80;;
68284;SDS011;55114;52.052;5.238;2022-12-20T03:26:39;6.00;;;2.80;;
68284;SDS011;55114;52.052;5.238;2022-12-20T03:29:06;6.30;;;2.92;;
68284;SDS011;55114;52.052;5.238;2022-12-20T03:31:34;7.70;;;2.80;;
68284;SDS011;55114;52.052;5.238;2022-12-20T03:34:01;6.88;;;2.65;;
68284;SDS011;55114;52.052;5.238;2022-12-20T03:36:28;6.67;;;2.63;;
68284;SDS011;55114;52.052;5.238;2022-12-20T03:38:56;5.72;;;2.78;;
68284;SDS011;55114;52.052;5.238;2022-12-20T03:41:23;5.60;;;3.10;;
68284;SDS011;55114;52.052;5.238;2022-12-20T03:43:51;7.50;;;2.90;;
68284;SDS011;55114;52.052;5.238;2022-12-20T03:46:18;5.60;;;2.50;;
68284;SDS011;55114;52.052;5.238;2022-12-20T03:48:45;7.80;;;2.87;;
68284;SDS011;55114;52.052;5.238;2022-12-20T03:51:13;7.03;;;2.63;;
68284;SDS011;55114;52.052;5.238;2022-12-20T03:53:40;5.90;;;2.60;;
68284;SDS011;55114;52.052;5.238;2022-12-20T03:56:08;6.93;;;2.88;;
68284;SDS011;55114;52.052;5.238;2022-12-20T03:58:35;5.43;;;2.65;;
68284;SDS011;55114;52.052;5.238;2022-12-20T04:01:15;6.17;;;2.73;;
68284;SDS011;55114;52.052;5.238;2022-12-20T04:03:46;5.63;;;2.70;;
68284;SDS011;55114;52.052;5.238;2022-12-20T04:06:14;5.45;;;2.53;;
68284;SDS011;55114;52.052;5.238;2022-12-20T04:08:41;6.97;;;2.72;;
68284;SDS011;55114;52.052;5.238;2022-12-20T04:11:08;5.85;;;2.80;;
68284;SDS011;55114;52.052;5.238;2022-12-20T04:13:47;6.47;;;2.70;;
68284;SDS011;55114;52.052;5.238;2022-12-20T04:16:15;6.55;;;2.75;;
68284;SDS011;55114;52.052;5.238;2022-12-20T04:18:43;6.78;;;2.90;;
68284;SDS011;55114;52.052;5.238;2022-12-20T04:21:10;7.40;;;2.72;;
68284;SDS011;55114;52.052;5.238;2022-12-20T04:23:38;7.10;;;2.65;;
68284;SDS011;55114;52.052;5.238;2022-12-20T04:26:06;6.00;;;2.70;;
68284;SDS011;55114;52.052;5.238;2022-12-20T04:28:34;7.35;;;2.70;;
68284;SDS011;55114;52.052;5.238;2022-12-20T04:31:02;4.90;;;2.47;;
68284;SDS011;55114;52.052;5.238;2022-12-20T04:33:29;7.22;;;2.70;;
68284;SDS011;55114;52.052;5.238;2022-12-20T04:35:57;5.88;;;2.53;;
68284;SDS011;55114;52.052;5.238;2022-12-20T04:38:24;7.47;;;2.90;;
68284;SDS011;55114;52.052;5.238;2022-12-20T04:40:52;6.15;;;2.22;;
68284;SDS011;55114;52.052;5.238;2022-12-20T04:43:20;6.45;;;2.45;;
68284;SDS011;55114;52.052;5.238;2022-12-20T04:45:49;6.85;;;2.55;;
68284;SDS011;55114;52.052;5.238;2022-12-20T04:48:18;5.20;;;2.60;;
68284;SDS011;55114;52.052;5.238;2022-12-20T04:51:06;7.07;;;2.90;;
68284;SDS011;55114;52.052;5.238;2022-12-20T04:53:33;6.25;;;2.95;;
68284;SDS011;55114;52.052;5.238;2022-12-20T04:56:20;6.35;;;2.53;;
68284;SDS011;55114;52.052;5.238;2022-12-20T04:58:49;7.30;;;3.38;;
68284;SDS011;55114;52.052;5.238;2022-12-20T05:01:17;8.73;;;2.95;;
68284;SDS011;55114;52.052;5.238;2022-12-20T05:03:44;5.17;;;2.67;;
68284;SDS011;55114;52.052;5.238;2022-12-20T05:06:13;8.27;;;2.95;;
68284;SDS011;55114;52.052;5.238;2022-12-20T05:08:40;8.63;;;2.90;;
68284;SDS011;55114;52.052;5.238;2022-12-20T05:11:08;7.82;;;2.92;;
68284;SDS011;55114;52.052;5.238;2022-12-20T05:13:35;6.97;;;2.90;;
68284;SDS011;55114;52.052;5.238;2022-12-20T05:16:02;7.07;;;2.97;;
68284;SDS011;55114;52.052;5.238;2022-12-20T05:18:30;6.18;;;2.97;;
68284;SDS011;55114;52.052;5.238;2022-12-20T05:20:58;6.63;;;3.20;;
68284;SDS011;55114;52.052;5.238;2022-12-20T05:23:45;5.78;;;2.80;;
68284;SDS011;55114;52.052;5.238;2022-12-20T05:26:33;7.97;;;3.00;;
68284;SDS011;55114;52.052;5.238;2022-12-20T05:29:00;4.57;;;2.30;;
68284;SDS011;55114;52.052;5.238;2022-12-20T05:31:28;7.50;;;3.22;;
68284;SDS011;55114;52.052;5.238;2022-12-20T05:33:55;6.75;;;2.80;;
68284;SDS011;55114;52.052;5.238;2022-12-20T05:36:22;6.65;;;2.80;;
68284;SDS011;55114;52.052;5.238;2022-12-20T05:38:49;5.93;;;2.72;;
68284;SDS011;55114;52.052;5.238;2022-12-20T05:41:17;6.37;;;2.70;;
68284;SDS011;55114;52.052;5.238;2022-12-20T05:43:45;8.57;;;3.17;;
68284;SDS011;55114;52.052;5.238;2022-12-20T05:46:12;5.95;;;3.13;;
68284;SDS011;55114;52.052;5.238;2022-12-20T05:48:39;7.47;;;3.20;;
68284;SDS011;55114;52.052;5.238;2022-12-20T05:51:06;8.40;;;3.08;;
68284;SDS011;55114;52.052;5.238;2022-12-20T05:53:33;7.33;;;2.80;;
68284;SDS011;55114;52.052;5.238;2022-12-20T05:56:00;7.93;;;3.30;;
68284;SDS011;55114;52.052;5.238;2022-12-20T05:58:28;7.10;;;3.03;;
68284;SDS011;55114;52.052;5.238;2022-12-20T06:00:55;6.13;;;3.00;;
68284;SDS011;55114;52.052;5.238;2022-12-20T06:03:22;8.10;;;3.25;;
68284;SDS011;55114;52.052;5.238;2022-12-20T06:05:50;5.57;;;2.70;;
68284;SDS011;55114;52.052;5.238;2022-12-20T06:08:17;5.60;;;2.33;;
68284;SDS011;55114;52.052;5.238;2022-12-20T06:10:46;6.78;;;2.80;;
68284;SDS011;55114;52.052;5.238;2022-12-20T06:13:13;8.85;;;3.08;;
68284;SDS011;55114;52.052;5.238;2022-12-20T06:15:41;6.65;;;3.10;;
68284;SDS011;55114;52.052;5.238;2022-12-20T06:18:08;7.90;;;3.07;;
68284;SDS011;55114;52.052;5.238;2022-12-20T06:20:36;7.30;;;2.97;;
68284;SDS011;55114;52.052;5.238;2022-12-20T06:23:03;6.85;;;3.03;;
68284;SDS011;55114;52.052;5.238;2022-12-20T06:25:30;8.75;;;2.90;;
68284;SDS011;55114;52.052;5.238;2022-12-20T06:27:58;7.75;;;3.05;;
68284;SDS011;55114;52.052;5.238;2022-12-20T06:30:25;7.67;;;2.80;;
68284;SDS011;55114;52.052;5.238;2022-12-20T06:32:59;8.00;;;3.00;;
68284;SDS011;55114;52.052;5.238;2022-12-20T06:35:27;10.43;;;3.28;;
68284;SDS011;55114;52.052;5.238;2022-12-20T06:37:57;5.15;;;2.20;;
68284;SDS011;55114;52.052;5.238;2022-12-20T06:40:30;7.13;;;2.67;;
68284;SDS011;55114;52.052;5.238;2022-12-20T06:42:57;6.03;;;2.70;;
68284;SDS011;55114;52.052;5.238;2022-12-20T06:45:24;6.22;;;2.47;;
68284;SDS011;55114;52.052;5.238;2022-12-20T06:47:52;7.03;;;2.70;;
68284;SDS011;55114;52.052;5.238;2022-12-20T06:50:19;5.45;;;2.30;;
68284;SDS011;55114;52.052;5.238;2022-12-20T06:52:46;8.05;;;2.97;;
68284;SDS011;55114;52.052;5.238;2022-12-20T06:55:14;5.83;;;2.13;;
68284;SDS011;55114;52.052;5.238;2022-12-20T06:57:41;6.28;;;2.38;;
68284;SDS011;55114;52.052;5.238;2022-12-20T07:00:08;4.82;;;2.22;;
68284;SDS011;55114;52.052;5.238;2022-12-20T07:02:37;5.97;;;2.70;;
68284;SDS011;55114;52.052;5.238;2022-12-20T07:05:05;6.25;;;2.30;;
68284;SDS011;55114;52.052;5.238;2022-12-20T07:07:32;5.33;;;2.60;;
68284;SDS011;55114;52.052;5.238;2022-12-20T07:10:09;5.63;;;2.10;;
68284;SDS011;55114;52.052;5.238;2022-12-20T07:12:37;5.57;;;2.17;;
68284;SDS011;55114;52.052;5.238;2022-12-20T07:15:12;3.88;;;1.92;;
68284;SDS011;55114;52.052;5.238;2022-12-20T07:17:40;4.72;;;2.40;;
68284;SDS011;55114;52.052;5.238;2022-12-20T07:20:11;5.23;;;2.10;;
68284;SDS011;55114;52.052;5.238;2022-12-20T07:22:40;6.72;;;2.40;;
68284;SDS011;55114;52.052;5.238;2022-12-20T07:25:09;7.15;;;2.40;;
68284;SDS011;55114;52.052;5.238;2022-12-20T07:27:36;6.70;;;2.38;;
68284;SDS011;55114;52.052;5.238;2022-12-20T07:30:04;5.47;;;2.20;;
68284;SDS011;55114;52.052;5.238;2022-12-20T07:32:31;6.37;;;2.07;;
68284;SDS011;55114;52.052;5.238;2022-12-20T07:34:58;6.20;;;2.30;;
68284;SDS011;55114;52.052;5.238;2022-12-20T07:37:29;6.65;;;2.25;;
68284;SDS011;55114;52.052;5.238;2022-12-20T07:39:57;8.25;;;2.20;;
68284;SDS011;55114;52.052;5.238;2022-12-20T07:42:29;5.13;;;2.28;;
68284;SDS011;55114;52.052;5.238;2022-12-20T07:45:06;5.65;;;2.20;;
68284;SDS011;55114;52.052;5.238;2022-12-20T07:47:34;5.60;;;2.20;;
68284;SDS011;55114;52.052;5.238;2022-12-20T07:50:02;5.00;;;2.08;;
68284;SDS011;55114;52.052;5.238;2022-12-20T07:52:30;4.80;;;2.25;;
68284;SDS011;55114;52.052;5.238;2022-12-20T07:55:00;5.18;;;2.30;;
68284;SDS011;55114;52.052;5.238;2022-12-20T07:57:32;7.10;;;1.80;;
68284;SDS011;55114;52.052;5.238;2022-12-20T08:00:09;5.63;;;2.20;;
68284;SDS011;55114;52.052;5.238;2022-12-20T08:02:56;5.15;;;2.45;;
68284;SDS011;55114;52.052;5.238;2022-12-20T08:05:27;7.05;;;2.72;;
68284;SDS011;55114;52.052;5.238;2022-12-20T08:07:55;6.93;;;2.10;;
68284;SDS011;55114;52.052;5.238;2022-12-20T08:10:25;6.55;;;2.30;;
68284;SDS011;55114;52.052;5.238;2022-12-20T08:12:53;5.30;;;2.40;;
68284;SDS011;55114;52.052;5.238;2022-12-20T08:15:21;7.80;;;3.00;;
68284;SDS011;55114;52.052;5.238;2022-12-20T08:17:48;6.13;;;2.47;;
68284;SDS011;55114;52.052;5.238;2022-12-20T08:20:16;4.40;;;1.95;;
68284;SDS011;55114;52.052;5.238;2022-12-20T08:22:43;4.63;;;2.20;;
68284;SDS011;55114;52.052;5.238;2022-12-20T08:25:10;6.40;;;2.20;;
68284;SDS011;55114;52.052;5.238;2022-12-20T08:27:38;4.03;;;1.95;;
68284;SDS011;55114;52.052;5.238;2022-12-20T08:30:05;5.40;;;2.00;;
68284;SDS011;55114;52.052;5.238;2022-12-20T08:32:33;4.72;;;1.90;;
68284;SDS011;55114;52.052;5.238;2022-12-20T08:35:02;4.35;;;2.03;;
68284;SDS011;55114;52.052;5.238;2022-12-20T08:37:29;5.13;;;1.77;;
68284;SDS011;55114;52.052;5.238;2022-12-20T08:39:56;4.15;;;1.58;;
68284;SDS011;55114;52.052;5.238;2022-12-20T08:42:23;7.35;;;2.17;;
68284;SDS011;55114;52.052;5.238;2022-12-20T08:44:51;5.10;;;2.00;;
68284;SDS011;55114;52.052;5.238;2022-12-20T08:47:18;4.25;;;1.70;;
68284;SDS011;55114;52.052;5.238;2022-12-20T08:49:45;4.97;;;1.90;;
68284;SDS011;55114;52.052;5.238;2022-12-20T08:52:13;6.22;;;2.03;;
68284;SDS011;55114;52.052;5.238;2022-12-20T08:54:40;6.80;;;2.42;;
68284;SDS011;55114;52.052;5.238;2022-12-20T08:57:08;4.97;;;2.00;;
68284;SDS011;55114;52.052;5.238;2022-12-20T08:59:35;4.97;;;2.05;;
68284;SDS011;55114;52.052;5.238;2022-12-20T09:02:02;5.90;;;2.03;;
68284;SDS011;55114;52.052;5.238;2022-12-20T09:04:30;7.55;;;2.05;;
68284;SDS011;55114;52.052;5.238;2022-12-20T09:06:57;5.70;;;2.13;;
68284;SDS011;55114;52.052;5.238;2022-12-20T09:09:24;4.95;;;1.90;;
68284;SDS011;55114;52.052;5.238;2022-12-20T09:11:52;6.00;;;1.95;;
68284;SDS011;55114;52.052;5.238;2022-12-20T09:14:19;5.63;;;2.10;;
68284;SDS011;55114;52.052;5.238;2022-12-20T09:16:46;6.78;;;2.17;;
68284;SDS011;55114;52.052;5.238;2022-12-20T09:19:14;4.95;;;2.10;;
68284;SDS011;55114;52.052;5.238;2022-12-20T09:21:42;6.95;;;2.42;;
68284;SDS011;55114;52.052;5.238;2022-12-20T09:24:09;5.63;;;2.30;;
68284;SDS011;55114;52.052;5.238;2022-12-20T09:26:36;7.07;;;2.37;;
68284;SDS011;55114;52.052;5.238;2022-12-20T09:29:05;6.00;;;2.45;;
68284;SDS011;55114;52.052;5.238;2022-12-20T09:31:33;6.07;;;2.30;;
68284;SDS011;55114;52.052;5.238;2022-12-20T09:34:00;7.80;;;2.20;;
68284;SDS011;55114;52.052;5.238;2022-12-20T09:36:28;9.15;;;2.90;;
68284;SDS011;55114;52.052;5.238;2022-12-20T09:38:55;6.20;;;2.53;;
68284;SDS011;55114;52.052;5.238;2022-12-20T09:41:24;6.72;;;2.50;;
68284;SDS011;55114;52.052;5.238;2022-12-20T09:43:54;6.97;;;2.88;;
68284;SDS011;55114;52.052;5.238;2022-12-20T09:46:22;7.28;;;2.28;;
68284;SDS011;55114;52.052;5.238;2022-12-20T09:48:51;5.97;;;2.25;;
68284;SDS011;55114;52.052;5.238;2022-12-20T09:51:27;5.33;;;2.60;;
68284;SDS011;55114;52.052;5.238;2022-12-20T09:56:59;5.53;;;2.50;;
68284;SDS011;55114;52.052;5.238;2022-12-20T09:59:32;5.72;;;2.47;;
68284;SDS011;55114;52.052;5.238;2022-12-20T10:02:10;7.00;;;3.03;;
68284;SDS011;55114;52.052;5.238;2022-12-20T10:04:58;7.53;;;3.07;;
68284;SDS011;55114;52.052;5.238;2022-12-20T10:07:32;8.00;;;2.88;;
68284;SDS011;55114;52.052;5.238;2022-12-20T10:12:50;6.13;;;2.33;;
68284;SDS011;55114;52.052;5.238;2022-12-20T10:15:29;6.65;;;2.63;;
68284;SDS011;55114;52.052;5.238;2022-12-20T10:24:02;6.32;;;3.30;;
68284;SDS011;55114;52.052;5.238;2022-12-20T10:26:39;6.63;;;2.55;;
68284;SDS011;55114;52.052;5.238;2022-12-20T10:29:07;6.22;;;2.80;;
68284;SDS011;55114;52.052;5.238;2022-12-20T10:31:34;6.47;;;2.70;;
68284;SDS011;55114;52.052;5.238;2022-12-20T10:34:02;5.95;;;2.70;;
68284;SDS011;55114;52.052;5.238;2022-12-20T10:36:33;8.35;;;3.13;;
68284;SDS011;55114;52.052;5.238;2022-12-20T10:39:03;7.53;;;2.70;;
68284;SDS011;55114;52.052;5.238;2022-12-20T10:46:44;8.80;;;3.00;;
68284;SDS011;55114;52.052;5.238;2022-12-20T10:49:32;7.68;;;2.63;;
68284;SDS011;55114;52.052;5.238;2022-12-20T10:57:12;7.13;;;2.83;;
68284;SDS011;55114;52.052;5.238;2022-12-20T10:59:48;7.28;;;2.90;;
68284;SDS011;55114;52.052;5.238;2022-12-20T11:10:39;6.83;;;2.90;;
68284;SDS011;55114;52.052;5.238;2022-12-20T11:13:09;8.95;;;3.22;;
68284;SDS011;55114;52.052;5.238;2022-12-20T11:15:48;7.90;;;3.15;;
68284;SDS011;55114;52.052;5.238;2022-12-20T11:19:02;7.45;;;2.95;;
68284;SDS011;55114;52.052;5.238;2022-12-20T11:28:55;7.43;;;3.50;;
68284;SDS011;55114;52.052;5.238;2022-12-20T11:39:39;8.23;;;3.60;;
68284;SDS011;55114;52.052;5.238;2022-12-20T11:47:39;8.52;;;3.65;;
68284;SDS011;55114;52.052;5.238;2022-12-20T11:52:44;9.02;;;3.63;;
68284;SDS011;55114;52.052;5.238;2022-12-20T11:55:17;10.52;;;4.15;;
68284;SDS011;55114;52.052;5.238;2022-12-20T12:00:37;8.40;;;3.80;;
68284;SDS011;55114;52.052;5.238;2022-12-20T12:05:52;7.72;;;3.97;;
68284;SDS011;55114;52.052;5.238;2022-12-20T12:08:30;8.35;;;4.38;;
68284;SDS011;55114;52.052;5.238;2022-12-20T12:10:59;8.68;;;4.30;;
68284;SDS011;55114;52.052;5.238;2022-12-20T12:13:29;10.25;;;4.20;;
68284;SDS011;55114;52.052;5.238;2022-12-20T12:16:04;7.53;;;3.33;;
68284;SDS011;55114;52.052;5.238;2022-12-20T12:18:32;11.05;;;3.90;;
68284;SDS011;55114;52.052;5.238;2022-12-20T12:23:44;9.63;;;4.18;;
68284;SDS011;55114;52.052;5.238;2022-12-20T12:26:17;8.00;;;4.32;;
68284;SDS011;55114;52.052;5.238;2022-12-20T12:28:47;8.27;;;4.07;;
68284;SDS011;55114;52.052;5.238;2022-12-20T12:31:16;9.23;;;4.38;;
68284;SDS011;55114;52.052;5.238;2022-12-20T12:33:49;10.32;;;4.72;;
68284;SDS011;55114;52.052;5.238;2022-12-20T12:44:20;9.10;;;4.57;;
68284;SDS011;55114;52.052;5.238;2022-12-20T12:46:51;9.55;;;4.93;;
68284;SDS011;55114;52.052;5.238;2022-12-20T12:49:21;9.35;;;5.05;;
68284;SDS011;55114;52.052;5.238;2022-12-20T12:51:52;11.38;;;5.43;;
68284;SDS011;55114;52.052;5.238;2022-12-20T12:54:34;8.50;;;4.63;;
68284;SDS011;55114;52.052;5.238;2022-12-20T12:57:02;10.02;;;4.90;;
68284;SDS011;55114;52.052;5.238;2022-12-20T13:04:50;11.07;;;5.28;;
68284;SDS011;55114;52.052;5.238;2022-12-20T13:07:28;9.23;;;4.67;;
68284;SDS011;55114;52.052;5.238;2022-12-20T13:20:40;10.63;;;5.13;;
68284;SDS011;55114;52.052;5.238;2022-12-20T13:25:37;11.75;;;5.15;;
68284;SDS011;55114;52.052;5.238;2022-12-20T13:30:46;11.02;;;5.40;;
68284;SDS011;55114;52.052;5.238;2022-12-20T13:33:20;11.23;;;5.40;;
68284;SDS011;55114;52.052;5.238;2022-12-20T13:35:57;11.93;;;5.32;;
68284;SDS011;55114;52.052;5.238;2022-12-20T13:38:34;11.10;;;5.82;;
68284;SDS011;55114;52.052;5.238;2022-12-20T13:41:08;10.45;;;5.65;;
68284;SDS011;55114;52.052;5.238;2022-12-20T13:43:41;11.52;;;5.57;;
68284;SDS011;55114;52.052;5.238;2022-12-20T13:51:04;12.13;;;5.20;;
68284;SDS011;55114;52.052;5.238;2022-12-20T13:53:33;10.20;;;5.03;;
68284;SDS011;55114;52.052;5.238;2022-12-20T13:58:47;11.07;;;5.23;;
68284;SDS011;55114;52.052;5.238;2022-12-20T14:01:21;10.23;;;5.30;;
68284;SDS011;55114;52.052;5.238;2022-12-20T14:03:49;10.23;;;5.47;;
68284;SDS011;55114;52.052;5.238;2022-12-20T14:06:21;10.77;;;5.28;;
68284;SDS011;55114;52.052;5.238;2022-12-20T14:08:52;8.85;;;5.20;;
68284;SDS011;55114;52.052;5.238;2022-12-20T14:11:21;12.77;;;5.83;;
68284;SDS011;55114;52.052;5.238;2022-12-20T14:13:51;12.48;;;5.20;;
68284;SDS011;55114;52.052;5.238;2022-12-20T14:16:21;12.90;;;5.70;;
68284;SDS011;55114;52.052;5.238;2022-12-20T14:18:59;9.82;;;5.40;;
68284;SDS011;55114;52.052;5.238;2022-12-20T14:21:32;11.10;;;5.78;;
68284;SDS011;55114;52.052;5.238;2022-12-20T14:24:00;13.57;;;5.63;;
68284;SDS011;55114;52.052;5.238;2022-12-20T14:26:29;9.73;;;4.50;;
68284;SDS011;55114;52.052;5.238;2022-12-20T14:28:57;12.18;;;5.45;;
68284;SDS011;55114;52.052;5.238;2022-12-20T14:36:29;10.80;;;5.40;;
68284;SDS011;55114;52.052;5.238;2022-12-20T14:38:56;11.73;;;5.30;;
68284;SDS011;55114;52.052;5.238;2022-12-20T14:43:55;11.68;;;5.70;;
68284;SDS011;55114;52.052;5.238;2022-12-20T14:46:26;10.30;;;5.45;;
68284;SDS011;55114;52.052;5.238;2022-12-20T14:49:32;11.73;;;5.53;;
68284;SDS011;55114;52.052;5.238;2022-12-20T14:51:54;11.02;;;5.40;;
68284;SDS011;55114;52.052;5.238;2022-12-20T14:54:31;12.85;;;5.47;;
68284;SDS011;55114;52.052;5.238;2022-12-20T14:57:24;14.35;;;5.93;;
68284;SDS011;55114;52.052;5.238;2022-12-20T14:59:59;12.20;;;6.38;;
68284;SDS011;55114;52.052;5.238;2022-12-20T15:02:32;13.07;;;6.00;;
68284;SDS011;55114;52.052;5.238;2022-12-20T15:05:06;10.90;;;5.78;;
68284;SDS011;55114;52.052;5.238;2022-12-20T15:07:33;10.50;;;5.82;;
68284;SDS011;55114;52.052;5.238;2022-12-20T15:10:01;11.23;;;6.10;;
68284;SDS011;55114;52.052;5.238;2022-12-20T15:12:28;10.77;;;6.03;;
68284;SDS011;55114;52.052;5.238;2022-12-20T15:14:56;12.73;;;5.63;;
68284;SDS011;55114;52.052;5.238;2022-12-20T15:17:43;12.95;;;5.82;;
68284;SDS011;55114;52.052;5.238;2022-12-20T15:20:11;12.65;;;5.88;;
68284;SDS011;55114;52.052;5.238;2022-12-20T15:22:39;11.20;;;6.22;;
68284;SDS011;55114;52.052;5.238;2022-12-20T15:25:24;14.55;;;6.25;;
68284;SDS011;55114;52.052;5.238;2022-12-20T15:27:52;13.77;;;6.33;;
68284;SDS011;55114;52.052;5.238;2022-12-20T15:30:23;13.27;;;6.10;;
68284;SDS011;55114;52.052;5.238;2022-12-20T15:32:50;12.13;;;6.38;;
68284;SDS011;55114;52.052;5.238;2022-12-20T15:35:21;15.30;;;6.45;;
68284;SDS011;55114;52.052;5.238;2022-12-20T15:37:49;14.50;;;6.82;;
68284;SDS011;55114;52.052;5.238;2022-12-20T15:40:16;13.87;;;6.67;;
68284;SDS011;55114;52.052;5.238;2022-12-20T15:42:44;13.43;;;6.85;;
68284;SDS011;55114;52.052;5.238;2022-12-20T15:45:14;12.68;;;7.07;;
68284;SDS011;55114;52.052;5.238;2022-12-20T15:47:42;14.93;;;7.15;;
68284;SDS011;55114;52.052;5.238;2022-12-20T15:50:10;12.75;;;6.60;;
68284;SDS011;55114;52.052;5.238;2022-12-20T15:52:38;15.13;;;7.13;;
68284;SDS011;55114;52.052;5.238;2022-12-20T15:55:08;14.90;;;6.95;;
68284;SDS011;55114;52.052;5.238;2022-12-20T15:57:36;15.25;;;7.05;;
68284;SDS011;55114;52.052;5.238;2022-12-20T16:00:04;13.70;;;6.97;;
68284;SDS011;55114;52.052;5.238;2022-12-20T16:02:32;14.55;;;7.15;;
68284;SDS011;55114;52.052;5.238;2022-12-20T16:05:00;16.00;;;7.47;;
68284;SDS011;55114;52.052;5.238;2022-12-20T16:07:31;16.42;;;7.10;;
68284;SDS011;55114;52.052;5.238;2022-12-20T16:09:58;16.38;;;7.95;;
68284;SDS011;55114;52.052;5.238;2022-12-20T16:12:27;13.85;;;7.32;;
68284;SDS011;55114;52.052;5.238;2022-12-20T16:14:55;16.27;;;7.28;;
68284;SDS011;55114;52.052;5.238;2022-12-20T16:17:23;15.50;;;7.03;;
68284;SDS011;55114;52.052;5.238;2022-12-20T16:19:50;15.93;;;7.40;;
68284;SDS011;55114;52.052;5.238;2022-12-20T16:22:18;16.02;;;7.90;;
68284;SDS011;55114;52.052;5.238;2022-12-20T16:24:47;16.70;;;7.78;;
68284;SDS011;55114;52.052;5.238;2022-12-20T16:27:15;16.48;;;8.02;;
68284;SDS011;55114;52.052;5.238;2022-12-20T16:29:43;19.63;;;8.43;;
68284;SDS011;55114;52.052;5.238;2022-12-20T16:32:12;18.27;;;8.90;;
68284;SDS011;55114;52.052;5.238;2022-12-20T16:34:41;18.48;;;8.40;;
68284;SDS011;55114;52.052;5.238;2022-12-20T16:37:12;19.63;;;9.07;;
68284;SDS011;55114;52.052;5.238;2022-12-20T16:39:40;20.65;;;10.38;;
68284;SDS011;55114;52.052;5.238;2022-12-20T16:42:11;20.67;;;8.63;;
68284;SDS011;55114;52.052;5.238;2022-12-20T16:44:52;22.10;;;9.95;;
68284;SDS011;55114;52.052;5.238;2022-12-20T16:47:20;21.08;;;9.35;;
68284;SDS011;55114;52.052;5.238;2022-12-20T16:49:56;19.80;;;8.40;;
68284;SDS011;55114;52.052;5.238;2022-12-20T16:52:23;18.98;;;9.18;;
68284;SDS011;55114;52.052;5.238;2022-12-20T16:54:50;19.90;;;8.93;;
68284;SDS011;55114;52.052;5.238;2022-12-20T16:57:18;20.52;;;9.18;;
68284;SDS011;55114;52.052;5.238;2022-12-20T16:59:46;21.08;;;9.63;;
68284;SDS011;55114;52.052;5.238;2022-12-20T17:02:25;21.48;;;9.70;;
68284;SDS011;55114;52.052;5.238;2022-12-20T17:04:53;20.13;;;9.70;;